Fort Towson, Oklahoma
Current Conditions -  °F | °C
As of 8:35 PM on Thursday 20 Nov 2014 (Local Time) from KHHW Reporting Station
Scattered Clouds Scattered Clouds  
Wind Chill: 51°   Ceiling: Unl
Heat Index: 51°   Visibility: 10mi
Dew Point: 47°   Wind: 10mph
Humidity: 85%   Direction: 120°ESE
Pressure: 30.09"   Gusts: NA
Location:  34.02°N, 95.27°W
Report Text: KHHW 210235Z AUTO 12009KT 10SM SCT044 SCT055 SCT070 11/08 A3009 RMK AO2 T01060081
Loading
Personal Weather Stations






























Interactive Weather Map New forecast layout! Learn more

10-Day Weather Forecast

Advertisements
Track Severe Weather on mobile